sensor_id;sensor_type;location;lat;lon;timestamp;P1;durP1;ratioP1;P2;durP2;ratioP2
60032;SDS011;45905;50.570;10.428;2023-04-24T00:02:15;0.80;;;0.73;;
60032;SDS011;45905;50.570;10.428;2023-04-24T00:04:42;1.20;;;0.90;;
60032;SDS011;45905;50.570;10.428;2023-04-24T00:07:12;1.63;;;1.03;;
60032;SDS011;45905;50.570;10.428;2023-04-24T00:09:39;1.53;;;1.43;;
60032;SDS011;45905;50.570;10.428;2023-04-24T00:12:07;1.07;;;0.97;;
60032;SDS011;45905;50.570;10.428;2023-04-24T00:14:35;1.53;;;1.33;;
60032;SDS011;45905;50.570;10.428;2023-04-24T00:17:02;1.73;;;1.33;;
60032;SDS011;45905;50.570;10.428;2023-04-24T00:19:29;0.87;;;0.77;;
60032;SDS011;45905;50.570;10.428;2023-04-24T00:21:57;1.37;;;1.10;;
60032;SDS011;45905;50.570;10.428;2023-04-24T00:24:24;1.60;;;1.17;;
60032;SDS011;45905;50.570;10.428;2023-04-24T00:26:52;1.70;;;1.40;;
60032;SDS011;45905;50.570;10.428;2023-04-24T00:29:19;1.23;;;0.90;;
60032;SDS011;45905;50.570;10.428;2023-04-24T00:31:46;1.30;;;1.20;;
60032;SDS011;45905;50.570;10.428;2023-04-24T00:34:14;1.37;;;1.10;;
60032;SDS011;45905;50.570;10.428;2023-04-24T00:36:42;2.20;;;2.00;;
60032;SDS011;45905;50.570;10.428;2023-04-24T00:39:09;2.23;;;1.47;;
60032;SDS011;45905;50.570;10.428;2023-04-24T00:41:37;1.43;;;1.33;;
60032;SDS011;45905;50.570;10.428;2023-04-24T00:44:04;2.40;;;1.67;;
60032;SDS011;45905;50.570;10.428;2023-04-24T00:46:32;1.70;;;1.50;;
60032;SDS011;45905;50.570;10.428;2023-04-24T00:48:59;1.90;;;1.70;;
60032;SDS011;45905;50.570;10.428;2023-04-24T00:51:27;2.77;;;1.90;;
60032;SDS011;45905;50.570;10.428;2023-04-24T00:53:54;2.50;;;1.97;;
60032;SDS011;45905;50.570;10.428;2023-04-24T00:56:21;1.83;;;1.60;;
60032;SDS011;45905;50.570;10.428;2023-04-24T00:58:50;2.67;;;1.47;;
60032;SDS011;45905;50.570;10.428;2023-04-24T01:01:20;1.90;;;1.23;;
60032;SDS011;45905;50.570;10.428;2023-04-24T01:03:50;3.53;;;1.93;;
60032;SDS011;45905;50.570;10.428;2023-04-24T01:06:19;3.20;;;2.00;;
60032;SDS011;45905;50.570;10.428;2023-04-24T01:08:48;1.83;;;1.73;;
60032;SDS011;45905;50.570;10.428;2023-04-24T01:11:16;2.40;;;2.10;;
60032;SDS011;45905;50.570;10.428;2023-04-24T01:13:44;2.03;;;1.67;;
60032;SDS011;45905;50.570;10.428;2023-04-24T01:16:12;3.93;;;2.00;;
60032;SDS011;45905;50.570;10.428;2023-04-24T01:18:40;2.30;;;2.10;;
60032;SDS011;45905;50.570;10.428;2023-04-24T01:21:10;2.80;;;2.17;;
60032;SDS011;45905;50.570;10.428;2023-04-24T01:23:43;2.00;;;1.80;;
60032;SDS011;45905;50.570;10.428;2023-04-24T01:26:11;2.63;;;2.43;;
60032;SDS011;45905;50.570;10.428;2023-04-24T01:28:41;1.60;;;1.40;;
60032;SDS011;45905;50.570;10.428;2023-04-24T01:31:09;3.87;;;2.10;;
60032;SDS011;45905;50.570;10.428;2023-04-24T01:33:36;3.90;;;3.27;;
60032;SDS011;45905;50.570;10.428;2023-04-24T01:36:04;2.10;;;1.90;;
60032;SDS011;45905;50.570;10.428;2023-04-24T01:38:32;1.77;;;1.67;;
60032;SDS011;45905;50.570;10.428;2023-04-24T01:40:59;1.50;;;1.23;;
60032;SDS011;45905;50.570;10.428;2023-04-24T01:43:27;1.93;;;1.83;;
60032;SDS011;45905;50.570;10.428;2023-04-24T01:45:56;1.80;;;1.30;;
60032;SDS011;45905;50.570;10.428;2023-04-24T01:48:24;3.10;;;2.60;;
60032;SDS011;45905;50.570;10.428;2023-04-24T01:50:51;1.70;;;1.60;;
60032;SDS011;45905;50.570;10.428;2023-04-24T01:53:19;2.27;;;2.07;;
60032;SDS011;45905;50.570;10.428;2023-04-24T01:55:46;1.77;;;1.67;;
60032;SDS011;45905;50.570;10.428;2023-04-24T01:58:14;4.43;;;2.60;;
60032;SDS011;45905;50.570;10.428;2023-04-24T02:00:41;2.67;;;1.70;;
60032;SDS011;45905;50.570;10.428;2023-04-24T02:03:09;2.63;;;2.30;;
60032;SDS011;45905;50.570;10.428;2023-04-24T02:05:36;2.13;;;2.03;;
60032;SDS011;45905;50.570;10.428;2023-04-24T02:08:04;2.90;;;2.00;;
60032;SDS011;45905;50.570;10.428;2023-04-24T02:10:31;1.70;;;1.60;;
60032;SDS011;45905;50.570;10.428;2023-04-24T02:13:00;2.23;;;1.83;;
60032;SDS011;45905;50.570;10.428;2023-04-24T02:15:27;1.70;;;1.50;;
60032;SDS011;45905;50.570;10.428;2023-04-24T02:17:55;1.40;;;1.30;;
60032;SDS011;45905;50.570;10.428;2023-04-24T02:20:22;1.97;;;1.73;;
60032;SDS011;45905;50.570;10.428;2023-04-24T02:22:52;2.30;;;1.50;;
60032;SDS011;45905;50.570;10.428;2023-04-24T02:25:19;3.93;;;1.20;;
60032;SDS011;45905;50.570;10.428;2023-04-24T02:27:46;1.97;;;1.63;;
60032;SDS011;45905;50.570;10.428;2023-04-24T02:30:14;1.80;;;1.70;;
60032;SDS011;45905;50.570;10.428;2023-04-24T02:32:41;1.93;;;1.73;;
60032;SDS011;45905;50.570;10.428;2023-04-24T02:35:09;1.90;;;1.80;;
60032;SDS011;45905;50.570;10.428;2023-04-24T02:37:37;2.93;;;2.07;;
60032;SDS011;45905;50.570;10.428;2023-04-24T02:40:04;1.67;;;1.57;;
60032;SDS011;45905;50.570;10.428;2023-04-24T02:42:32;3.53;;;2.20;;
60032;SDS011;45905;50.570;10.428;2023-04-24T02:45:00;2.60;;;1.70;;
60032;SDS011;45905;50.570;10.428;2023-04-24T02:47:28;2.10;;;1.90;;
60032;SDS011;45905;50.570;10.428;2023-04-24T02:49:56;2.60;;;2.30;;
60032;SDS011;45905;50.570;10.428;2023-04-24T02:52:23;1.63;;;1.53;;
60032;SDS011;45905;50.570;10.428;2023-04-24T02:54:50;1.53;;;1.43;;
60032;SDS011;45905;50.570;10.428;2023-04-24T02:57:18;1.50;;;1.40;;
60032;SDS011;45905;50.570;10.428;2023-04-24T02:59:45;2.67;;;1.93;;
60032;SDS011;45905;50.570;10.428;2023-04-24T03:02:12;2.67;;;1.40;;
60032;SDS011;45905;50.570;10.428;2023-04-24T03:04:40;1.30;;;1.20;;
60032;SDS011;45905;50.570;10.428;2023-04-24T03:07:09;1.57;;;1.17;;
60032;SDS011;45905;50.570;10.428;2023-04-24T03:09:37;1.87;;;1.77;;
60032;SDS011;45905;50.570;10.428;2023-04-24T03:12:04;2.03;;;1.77;;
60032;SDS011;45905;50.570;10.428;2023-04-24T03:14:31;2.57;;;1.83;;
60032;SDS011;45905;50.570;10.428;2023-04-24T03:16:59;2.23;;;2.03;;
60032;SDS011;45905;50.570;10.428;2023-04-24T03:19:26;1.90;;;1.40;;
60032;SDS011;45905;50.570;10.428;2023-04-24T03:22:02;1.50;;;1.40;;
60032;SDS011;45905;50.570;10.428;2023-04-24T03:24:30;2.70;;;1.87;;
60032;SDS011;45905;50.570;10.428;2023-04-24T03:26:58;1.43;;;1.33;;
60032;SDS011;45905;50.570;10.428;2023-04-24T03:30:06;1.60;;;1.50;;
60032;SDS011;45905;50.570;10.428;2023-04-24T03:32:43;1.80;;;1.70;;
60032;SDS011;45905;50.570;10.428;2023-04-24T03:35:14;2.30;;;2.10;;
60032;SDS011;45905;50.570;10.428;2023-04-24T03:37:41;1.80;;;1.37;;
60032;SDS011;45905;50.570;10.428;2023-04-24T03:40:34;1.60;;;1.37;;
60032;SDS011;45905;50.570;10.428;2023-04-24T03:43:06;1.17;;;1.07;;
60032;SDS011;45905;50.570;10.428;2023-04-24T03:45:35;1.50;;;1.40;;
60032;SDS011;45905;50.570;10.428;2023-04-24T03:48:02;1.27;;;1.17;;
60032;SDS011;45905;50.570;10.428;2023-04-24T03:50:31;1.50;;;1.27;;
60032;SDS011;45905;50.570;10.428;2023-04-24T03:52:59;2.13;;;1.00;;
60032;SDS011;45905;50.570;10.428;2023-04-24T03:55:35;1.70;;;1.60;;
60032;SDS011;45905;50.570;10.428;2023-04-24T03:58:03;1.63;;;1.27;;
60032;SDS011;45905;50.570;10.428;2023-04-24T04:00:30;3.20;;;1.60;;
60032;SDS011;45905;50.570;10.428;2023-04-24T04:03:24;1.57;;;1.10;;
60032;SDS011;45905;50.570;10.428;2023-04-24T04:05:52;1.67;;;1.00;;
60032;SDS011;45905;50.570;10.428;2023-04-24T04:08:20;1.30;;;0.90;;
60032;SDS011;45905;50.570;10.428;2023-04-24T04:10:47;6.40;;;1.70;;
60032;SDS011;45905;50.570;10.428;2023-04-24T04:13:14;1.00;;;0.90;;
60032;SDS011;45905;50.570;10.428;2023-04-24T04:15:42;1.50;;;0.83;;
60032;SDS011;45905;50.570;10.428;2023-04-24T04:18:09;1.23;;;1.13;;
60032;SDS011;45905;50.570;10.428;2023-04-24T04:20:37;2.43;;;1.30;;
60032;SDS011;45905;50.570;10.428;2023-04-24T04:23:05;1.00;;;0.83;;
60032;SDS011;45905;50.570;10.428;2023-04-24T04:25:48;1.40;;;1.30;;
60032;SDS011;45905;50.570;10.428;2023-04-24T04:28:20;1.20;;;1.10;;
60032;SDS011;45905;50.570;10.428;2023-04-24T04:30:48;3.13;;;1.53;;
60032;SDS011;45905;50.570;10.428;2023-04-24T04:33:15;1.20;;;0.80;;
60032;SDS011;45905;50.570;10.428;2023-04-24T04:35:43;0.97;;;0.87;;
60032;SDS011;45905;50.570;10.428;2023-04-24T04:38:11;1.10;;;0.97;;
60032;SDS011;45905;50.570;10.428;2023-04-24T04:40:58;1.50;;;1.00;;
60032;SDS011;45905;50.570;10.428;2023-04-24T04:43:29;1.23;;;1.13;;
60032;SDS011;45905;50.570;10.428;2023-04-24T04:45:57;2.47;;;1.00;;
60032;SDS011;45905;50.570;10.428;2023-04-24T04:48:45;1.00;;;0.80;;
60032;SDS011;45905;50.570;10.428;2023-04-24T04:51:13;3.27;;;1.03;;
60032;SDS011;45905;50.570;10.428;2023-04-24T04:53:41;1.43;;;1.33;;
60032;SDS011;45905;50.570;10.428;2023-04-24T04:56:08;1.30;;;1.03;;
60032;SDS011;45905;50.570;10.428;2023-04-24T04:58:39;1.60;;;1.40;;
60032;SDS011;45905;50.570;10.428;2023-04-24T05:01:10;1.43;;;1.23;;
60032;SDS011;45905;50.570;10.428;2023-04-24T05:03:41;1.00;;;0.90;;
60032;SDS011;45905;50.570;10.428;2023-04-24T05:06:12;1.10;;;0.77;;
60032;SDS011;45905;50.570;10.428;2023-04-24T05:08:39;0.90;;;0.60;;
60032;SDS011;45905;50.570;10.428;2023-04-24T05:11:11;1.83;;;1.17;;
60032;SDS011;45905;50.570;10.428;2023-04-24T05:13:40;2.37;;;1.00;;
60032;SDS011;45905;50.570;10.428;2023-04-24T05:16:13;2.30;;;1.10;;
60032;SDS011;45905;50.570;10.428;2023-04-24T05:18:40;1.33;;;1.13;;
60032;SDS011;45905;50.570;10.428;2023-04-24T05:21:10;0.90;;;0.70;;
60032;SDS011;45905;50.570;10.428;2023-04-24T05:23:39;1.30;;;1.20;;
60032;SDS011;45905;50.570;10.428;2023-04-24T05:26:07;0.90;;;0.80;;
60032;SDS011;45905;50.570;10.428;2023-04-24T05:28:34;2.67;;;2.47;;
60032;SDS011;45905;50.570;10.428;2023-04-24T05:31:07;6.20;;;1.20;;
60032;SDS011;45905;50.570;10.428;2023-04-24T05:33:35;1.10;;;0.90;;
60032;SDS011;45905;50.570;10.428;2023-04-24T05:36:02;3.43;;;1.00;;
60032;SDS011;45905;50.570;10.428;2023-04-24T05:38:31;1.37;;;1.27;;
60032;SDS011;45905;50.570;10.428;2023-04-24T05:40:59;1.50;;;1.10;;
60032;SDS011;45905;50.570;10.428;2023-04-24T05:43:26;1.50;;;1.00;;
60032;SDS011;45905;50.570;10.428;2023-04-24T05:45:53;1.03;;;0.70;;
60032;SDS011;45905;50.570;10.428;2023-04-24T05:48:21;1.20;;;0.80;;
60032;SDS011;45905;50.570;10.428;2023-04-24T05:50:50;6.53;;;1.10;;
60032;SDS011;45905;50.570;10.428;2023-04-24T05:53:18;0.97;;;0.87;;
60032;SDS011;45905;50.570;10.428;2023-04-24T05:55:46;1.90;;;1.80;;
60032;SDS011;45905;50.570;10.428;2023-04-24T05:58:14;0.87;;;0.73;;
60032;SDS011;45905;50.570;10.428;2023-04-24T06:00:41;0.87;;;0.80;;
60032;SDS011;45905;50.570;10.428;2023-04-24T06:03:10;3.40;;;1.40;;
60032;SDS011;45905;50.570;10.428;2023-04-24T06:05:39;1.50;;;1.00;;
60032;SDS011;45905;50.570;10.428;2023-04-24T06:08:07;1.67;;;1.03;;
60032;SDS011;45905;50.570;10.428;2023-04-24T06:10:38;9.00;;;1.33;;
60032;SDS011;45905;50.570;10.428;2023-04-24T06:13:07;1.23;;;1.03;;
60032;SDS011;45905;50.570;10.428;2023-04-24T06:15:37;1.00;;;0.60;;
60032;SDS011;45905;50.570;10.428;2023-04-24T06:18:16;2.20;;;1.10;;
60032;SDS011;45905;50.570;10.428;2023-04-24T06:20:44;2.70;;;1.30;;
60032;SDS011;45905;50.570;10.428;2023-04-24T06:23:12;0.90;;;0.60;;
60032;SDS011;45905;50.570;10.428;2023-04-24T06:25:40;1.37;;;0.70;;
60032;SDS011;45905;50.570;10.428;2023-04-24T06:28:07;1.27;;;0.70;;
60032;SDS011;45905;50.570;10.428;2023-04-24T06:30:35;1.20;;;1.10;;
60032;SDS011;45905;50.570;10.428;2023-04-24T06:33:02;0.90;;;0.73;;
60032;SDS011;45905;50.570;10.428;2023-04-24T06:35:45;0.90;;;0.60;;
60032;SDS011;45905;50.570;10.428;2023-04-24T06:38:12;0.87;;;0.43;;
60032;SDS011;45905;50.570;10.428;2023-04-24T06:40:39;1.27;;;1.00;;
60032;SDS011;45905;50.570;10.428;2023-04-24T06:43:07;6.00;;;1.00;;
60032;SDS011;45905;50.570;10.428;2023-04-24T06:45:34;2.30;;;1.33;;
60032;SDS011;45905;50.570;10.428;2023-04-24T06:48:01;0.87;;;0.70;;
60032;SDS011;45905;50.570;10.428;2023-04-24T06:50:28;1.47;;;0.90;;
60032;SDS011;45905;50.570;10.428;2023-04-24T06:52:55;1.30;;;0.90;;
60032;SDS011;45905;50.570;10.428;2023-04-24T06:55:23;1.33;;;1.23;;
60032;SDS011;45905;50.570;10.428;2023-04-24T06:57:50;1.43;;;1.33;;
60032;SDS011;45905;50.570;10.428;2023-04-24T07:00:17;1.50;;;0.90;;
60032;SDS011;45905;50.570;10.428;2023-04-24T07:02:45;1.40;;;0.87;;
60032;SDS011;45905;50.570;10.428;2023-04-24T07:05:12;1.00;;;0.90;;
60032;SDS011;45905;50.570;10.428;2023-04-24T07:07:41;1.73;;;0.70;;
60032;SDS011;45905;50.570;10.428;2023-04-24T07:10:09;1.50;;;0.90;;
60032;SDS011;45905;50.570;10.428;2023-04-24T07:12:37;1.10;;;1.00;;
60032;SDS011;45905;50.570;10.428;2023-04-24T07:15:04;1.10;;;1.00;;
60032;SDS011;45905;50.570;10.428;2023-04-24T07:17:34;1.07;;;0.97;;
60032;SDS011;45905;50.570;10.428;2023-04-24T07:20:01;1.10;;;0.73;;
60032;SDS011;45905;50.570;10.428;2023-04-24T07:22:29;1.00;;;0.90;;
60032;SDS011;45905;50.570;10.428;2023-04-24T07:24:56;1.80;;;1.70;;
60032;SDS011;45905;50.570;10.428;2023-04-24T07:27:24;1.40;;;1.13;;
60032;SDS011;45905;50.570;10.428;2023-04-24T07:29:52;1.90;;;1.80;;
60032;SDS011;45905;50.570;10.428;2023-04-24T07:32:19;1.30;;;1.20;;
60032;SDS011;45905;50.570;10.428;2023-04-24T07:34:46;1.63;;;1.40;;
60032;SDS011;45905;50.570;10.428;2023-04-24T07:37:14;1.93;;;1.43;;
60032;SDS011;45905;50.570;10.428;2023-04-24T07:39:42;1.63;;;0.80;;
60032;SDS011;45905;50.570;10.428;2023-04-24T07:42:09;6.73;;;1.17;;
60032;SDS011;45905;50.570;10.428;2023-04-24T07:44:37;1.10;;;1.00;;
60032;SDS011;45905;50.570;10.428;2023-04-24T07:47:04;0.93;;;0.83;;
60032;SDS011;45905;50.570;10.428;2023-04-24T07:49:32;1.30;;;0.87;;
60032;SDS011;45905;50.570;10.428;2023-04-24T07:52:01;1.00;;;0.80;;
60032;SDS011;45905;50.570;10.428;2023-04-24T07:54:29;1.13;;;1.03;;
60032;SDS011;45905;50.570;10.428;2023-04-24T07:56:56;1.00;;;0.87;;
60032;SDS011;45905;50.570;10.428;2023-04-24T07:59:23;1.23;;;0.80;;
60032;SDS011;45905;50.570;10.428;2023-04-24T08:01:50;0.90;;;0.80;;
60032;SDS011;45905;50.570;10.428;2023-04-24T08:04:18;1.83;;;1.73;;
60032;SDS011;45905;50.570;10.428;2023-04-24T08:06:47;1.40;;;0.60;;
60032;SDS011;45905;50.570;10.428;2023-04-24T08:09:14;1.40;;;0.90;;
60032;SDS011;45905;50.570;10.428;2023-04-24T08:11:43;0.90;;;0.70;;
60032;SDS011;45905;50.570;10.428;2023-04-24T08:14:10;0.80;;;0.70;;
60032;SDS011;45905;50.570;10.428;2023-04-24T08:16:39;1.10;;;0.73;;
60032;SDS011;45905;50.570;10.428;2023-04-24T08:19:07;0.90;;;0.80;;
60032;SDS011;45905;50.570;10.428;2023-04-24T08:21:35;1.50;;;1.00;;
60032;SDS011;45905;50.570;10.428;2023-04-24T08:24:02;1.00;;;0.70;;
60032;SDS011;45905;50.570;10.428;2023-04-24T08:26:33;2.10;;;1.00;;
60032;SDS011;45905;50.570;10.428;2023-04-24T08:29:00;1.10;;;0.70;;
60032;SDS011;45905;50.570;10.428;2023-04-24T08:31:28;1.33;;;0.90;;
60032;SDS011;45905;50.570;10.428;2023-04-24T08:33:55;0.90;;;0.63;;
60032;SDS011;45905;50.570;10.428;2023-04-24T08:36:23;0.90;;;0.60;;
60032;SDS011;45905;50.570;10.428;2023-04-24T08:39:09;0.80;;;0.57;;
60032;SDS011;45905;50.570;10.428;2023-04-24T08:41:36;1.37;;;0.70;;
60032;SDS011;45905;50.570;10.428;2023-04-24T08:44:04;0.80;;;0.70;;
60032;SDS011;45905;50.570;10.428;2023-04-24T08:46:35;1.17;;;0.67;;
60032;SDS011;45905;50.570;10.428;2023-04-24T08:49:04;16.83;;;0.70;;
60032;SDS011;45905;50.570;10.428;2023-04-24T08:51:31;2.00;;;1.10;;
60032;SDS011;45905;50.570;10.428;2023-04-24T08:53:59;1.83;;;0.60;;
60032;SDS011;45905;50.570;10.428;2023-04-24T08:56:29;1.37;;;0.80;;
60032;SDS011;45905;50.570;10.428;2023-04-24T08:58:59;1.10;;;0.60;;
60032;SDS011;45905;50.570;10.428;2023-04-24T09:01:27;1.40;;;0.73;;
60032;SDS011;45905;50.570;10.428;2023-04-24T09:03:55;0.80;;;0.70;;
60032;SDS011;45905;50.570;10.428;2023-04-24T09:06:24;0.70;;;0.40;;
60032;SDS011;45905;50.570;10.428;2023-04-24T09:08:52;0.87;;;0.60;;
60032;SDS011;45905;50.570;10.428;2023-04-24T09:11:22;0.80;;;0.60;;
60032;SDS011;45905;50.570;10.428;2023-04-24T09:13:53;0.90;;;0.60;;
60032;SDS011;45905;50.570;10.428;2023-04-24T09:16:21;0.87;;;0.50;;
60032;SDS011;45905;50.570;10.428;2023-04-24T09:18:50;0.90;;;0.70;;
60032;SDS011;45905;50.570;10.428;2023-04-24T09:21:20;0.90;;;0.80;;
60032;SDS011;45905;50.570;10.428;2023-04-24T09:24:09;1.00;;;0.80;;
60032;SDS011;45905;50.570;10.428;2023-04-24T09:26:46;1.47;;;1.00;;
60032;SDS011;45905;50.570;10.428;2023-04-24T09:29:14;1.63;;;1.53;;
60032;SDS011;45905;50.570;10.428;2023-04-24T09:31:45;1.10;;;1.00;;
60032;SDS011;45905;50.570;10.428;2023-04-24T09:34:12;3.67;;;1.93;;
60032;SDS011;45905;50.570;10.428;2023-04-24T09:36:41;0.90;;;0.80;;
60032;SDS011;45905;50.570;10.428;2023-04-24T09:39:14;1.73;;;0.73;;
60032;SDS011;45905;50.570;10.428;2023-04-24T09:41:53;1.70;;;1.50;;
60032;SDS011;45905;50.570;10.428;2023-04-24T09:44:26;2.23;;;1.50;;
60032;SDS011;45905;50.570;10.428;2023-04-24T09:46:55;5.43;;;2.20;;
60032;SDS011;45905;50.570;10.428;2023-04-24T09:49:27;1.43;;;1.13;;
60032;SDS011;45905;50.570;10.428;2023-04-24T09:52:03;1.07;;;0.63;;
60032;SDS011;45905;50.570;10.428;2023-04-24T09:54:34;1.10;;;0.73;;
60032;SDS011;45905;50.570;10.428;2023-04-24T09:57:07;2.13;;;0.97;;
60032;SDS011;45905;50.570;10.428;2023-04-24T09:59:35;1.47;;;0.80;;
60032;SDS011;45905;50.570;10.428;2023-04-24T10:02:18;0.90;;;0.60;;
60032;SDS011;45905;50.570;10.428;2023-04-24T10:04:56;1.10;;;0.70;;
60032;SDS011;45905;50.570;10.428;2023-04-24T10:07:26;1.27;;;0.87;;
60032;SDS011;45905;50.570;10.428;2023-04-24T10:09:53;0.90;;;0.60;;
60032;SDS011;45905;50.570;10.428;2023-04-24T10:12:21;1.30;;;0.80;;
60032;SDS011;45905;50.570;10.428;2023-04-24T10:14:49;0.70;;;0.40;;
60032;SDS011;45905;50.570;10.428;2023-04-24T10:17:16;1.00;;;0.87;;
60032;SDS011;45905;50.570;10.428;2023-04-24T10:19:46;0.87;;;0.67;;
60032;SDS011;45905;50.570;10.428;2023-04-24T10:22:14;0.90;;;0.70;;
60032;SDS011;45905;50.570;10.428;2023-04-24T10:24:43;1.00;;;0.83;;
60032;SDS011;45905;50.570;10.428;2023-04-24T10:27:11;0.80;;;0.50;;
60032;SDS011;45905;50.570;10.428;2023-04-24T10:29:41;0.80;;;0.50;;
60032;SDS011;45905;50.570;10.428;2023-04-24T10:32:11;0.83;;;0.80;;
60032;SDS011;45905;50.570;10.428;2023-04-24T10:34:38;1.73;;;0.87;;
60032;SDS011;45905;50.570;10.428;2023-04-24T10:37:05;1.47;;;0.77;;
60032;SDS011;45905;50.570;10.428;2023-04-24T10:39:33;1.20;;;0.80;;
60032;SDS011;45905;50.570;10.428;2023-04-24T10:42:01;1.57;;;0.80;;
60032;SDS011;45905;50.570;10.428;2023-04-24T10:44:39;0.90;;;0.50;;
60032;SDS011;45905;50.570;10.428;2023-04-24T10:47:12;1.27;;;0.90;;
60032;SDS011;45905;50.570;10.428;2023-04-24T10:49:40;1.20;;;1.03;;
60032;SDS011;45905;50.570;10.428;2023-04-24T10:52:08;2.27;;;1.27;;
60032;SDS011;45905;50.570;10.428;2023-04-24T10:54:36;1.23;;;0.63;;
60032;SDS011;45905;50.570;10.428;2023-04-24T10:59:49;5.50;;;0.80;;
60032;SDS011;45905;50.570;10.428;2023-04-24T11:02:40;2.03;;;1.30;;
60032;SDS011;45905;50.570;10.428;2023-04-24T11:05:15;1.47;;;1.07;;
60032;SDS011;45905;50.570;10.428;2023-04-24T11:10:46;1.03;;;0.63;;
60032;SDS011;45905;50.570;10.428;2023-04-24T11:13:27;2.23;;;1.30;;
60032;SDS011;45905;50.570;10.428;2023-04-24T11:22:00;1.13;;;0.70;;
60032;SDS011;45905;50.570;10.428;2023-04-24T11:24:31;0.70;;;0.43;;
60032;SDS011;45905;50.570;10.428;2023-04-24T11:27:12;1.73;;;0.90;;
60032;SDS011;45905;50.570;10.428;2023-04-24T11:32:25;1.30;;;1.00;;
60032;SDS011;45905;50.570;10.428;2023-04-24T11:35:08;1.83;;;0.90;;
60032;SDS011;45905;50.570;10.428;2023-04-24T11:37:52;1.43;;;0.90;;
60032;SDS011;45905;50.570;10.428;2023-04-24T11:40:23;3.73;;;1.07;;
60032;SDS011;45905;50.570;10.428;2023-04-24T11:42:52;1.23;;;0.93;;
60032;SDS011;45905;50.570;10.428;2023-04-24T11:45:24;1.27;;;0.90;;
60032;SDS011;45905;50.570;10.428;2023-04-24T11:47:54;1.50;;;1.00;;
60032;SDS011;45905;50.570;10.428;2023-04-24T11:50:22;1.37;;;1.00;;
60032;SDS011;45905;50.570;10.428;2023-04-24T11:52:53;1.50;;;1.17;;
60032;SDS011;45905;50.570;10.428;2023-04-24T11:57:48;1.00;;;0.87;;
60032;SDS011;45905;50.570;10.428;2023-04-24T12:00:18;1.30;;;1.10;;
60032;SDS011;45905;50.570;10.428;2023-04-24T12:02:49;1.17;;;1.07;;
60032;SDS011;45905;50.570;10.428;2023-04-24T12:07:49;1.20;;;0.60;;
60032;SDS011;45905;50.570;10.428;2023-04-24T12:10:20;2.33;;;1.37;;
60032;SDS011;45905;50.570;10.428;2023-04-24T12:12:50;1.67;;;1.00;;
60032;SDS011;45905;50.570;10.428;2023-04-24T12:15:18;1.10;;;0.60;;
60032;SDS011;45905;50.570;10.428;2023-04-24T12:17:47;1.00;;;0.90;;
60032;SDS011;45905;50.570;10.428;2023-04-24T12:20:23;0.90;;;0.70;;
60032;SDS011;45905;50.570;10.428;2023-04-24T12:22:56;1.00;;;0.70;;
60032;SDS011;45905;50.570;10.428;2023-04-24T12:25:26;0.90;;;0.60;;
60032;SDS011;45905;50.570;10.428;2023-04-24T12:30:30;3.73;;;0.80;;
60032;SDS011;45905;50.570;10.428;2023-04-24T12:33:00;1.00;;;0.70;;
60032;SDS011;45905;50.570;10.428;2023-04-24T12:35:29;1.13;;;1.00;;
60032;SDS011;45905;50.570;10.428;2023-04-24T12:38:06;1.30;;;0.60;;
60032;SDS011;45905;50.570;10.428;2023-04-24T12:40:42;2.33;;;0.67;;
60032;SDS011;45905;50.570;10.428;2023-04-24T12:43:14;1.07;;;0.60;;
60032;SDS011;45905;50.570;10.428;2023-04-24T12:45:43;1.10;;;0.63;;
60032;SDS011;45905;50.570;10.428;2023-04-24T12:48:11;1.00;;;0.70;;
60032;SDS011;45905;50.570;10.428;2023-04-24T12:50:40;0.90;;;0.60;;
60032;SDS011;45905;50.570;10.428;2023-04-24T12:53:11;0.90;;;0.70;;
60032;SDS011;45905;50.570;10.428;2023-04-24T12:55:39;1.80;;;0.63;;
60032;SDS011;45905;50.570;10.428;2023-04-24T12:58:07;0.87;;;0.67;;
60032;SDS011;45905;50.570;10.428;2023-04-24T13:00:34;1.67;;;0.83;;
60032;SDS011;45905;50.570;10.428;2023-04-24T13:03:02;1.20;;;0.77;;
60032;SDS011;45905;50.570;10.428;2023-04-24T13:05:30;0.90;;;0.50;;
60032;SDS011;45905;50.570;10.428;2023-04-24T13:07:57;1.17;;;0.87;;
60032;SDS011;45905;50.570;10.428;2023-04-24T13:10:24;0.93;;;0.70;;
60032;SDS011;45905;50.570;10.428;2023-04-24T13:12:51;1.60;;;1.20;;
60032;SDS011;45905;50.570;10.428;2023-04-24T13:15:19;0.90;;;0.60;;
60032;SDS011;45905;50.570;10.428;2023-04-24T13:17:46;1.80;;;1.30;;
60032;SDS011;45905;50.570;10.428;2023-04-24T13:20:13;0.90;;;0.60;;
60032;SDS011;45905;50.570;10.428;2023-04-24T13:22:40;0.80;;;0.50;;
60032;SDS011;45905;50.570;10.428;2023-04-24T13:25:08;0.80;;;0.57;;
60032;SDS011;45905;50.570;10.428;2023-04-24T13:27:37;1.87;;;0.80;;
60032;SDS011;45905;50.570;10.428;2023-04-24T13:30:06;0.87;;;0.53;;
60032;SDS011;45905;50.570;10.428;2023-04-24T13:32:34;0.90;;;0.57;;
60032;SDS011;45905;50.570;10.428;2023-04-24T13:35:03;1.00;;;0.50;;
60032;SDS011;45905;50.570;10.428;2023-04-24T13:37:30;1.43;;;0.93;;
60032;SDS011;45905;50.570;10.428;2023-04-24T13:39:58;0.70;;;0.40;;
60032;SDS011;45905;50.570;10.428;2023-04-24T13:42:25;0.80;;;0.57;;
60032;SDS011;45905;50.570;10.428;2023-04-24T13:44:52;0.70;;;0.50;;
60032;SDS011;45905;50.570;10.428;2023-04-24T13:47:20;0.80;;;0.40;;
60032;SDS011;45905;50.570;10.428;2023-04-24T13:49:47;0.80;;;0.50;;
60032;SDS011;45905;50.570;10.428;2023-04-24T13:52:14;0.80;;;0.47;;
60032;SDS011;45905;50.570;10.428;2023-04-24T13:54:42;0.80;;;0.50;;
60032;SDS011;45905;50.570;10.428;2023-04-24T13:57:09;1.47;;;0.70;;
60032;SDS011;45905;50.570;10.428;2023-04-24T13:59:36;1.30;;;0.60;;
60032;SDS011;45905;50.570;10.428;2023-04-24T14:02:03;0.70;;;0.40;;
60032;SDS011;45905;50.570;10.428;2023-04-24T14:04:30;1.07;;;0.53;;
60032;SDS011;45905;50.570;10.428;2023-04-24T14:06:58;0.93;;;0.60;;
60032;SDS011;45905;50.570;10.428;2023-04-24T14:09:25;1.47;;;0.70;;
60032;SDS011;45905;50.570;10.428;2023-04-24T14:11:53;0.80;;;0.50;;
60032;SDS011;45905;50.570;10.428;2023-04-24T14:14:20;0.80;;;0.50;;
60032;SDS011;45905;50.570;10.428;2023-04-24T14:16:47;0.97;;;0.50;;
60032;SDS011;45905;50.570;10.428;2023-04-24T14:19:14;1.17;;;0.50;;
60032;SDS011;45905;50.570;10.428;2023-04-24T14:21:42;0.70;;;0.40;;
60032;SDS011;45905;50.570;10.428;2023-04-24T14:24:09;0.80;;;0.50;;
60032;SDS011;45905;50.570;10.428;2023-04-24T14:26:36;0.70;;;0.30;;
60032;SDS011;45905;50.570;10.428;2023-04-24T14:29:03;0.80;;;0.40;;
60032;SDS011;45905;50.570;10.428;2023-04-24T14:31:40;0.70;;;0.40;;
60032;SDS011;45905;50.570;10.428;2023-04-24T14:34:09;0.90;;;0.67;;
60032;SDS011;45905;50.570;10.428;2023-04-24T14:36:36;0.70;;;0.40;;
60032;SDS011;45905;50.570;10.428;2023-04-24T14:39:04;0.70;;;0.40;;
60032;SDS011;45905;50.570;10.428;2023-04-24T14:41:33;1.10;;;0.90;;
60032;SDS011;45905;50.570;10.428;2023-04-24T14:44:02;0.83;;;0.40;;
60032;SDS011;45905;50.570;10.428;2023-04-24T14:46:30;0.80;;;0.43;;
60032;SDS011;45905;50.570;10.428;2023-04-24T14:48:57;1.60;;;0.80;;
60032;SDS011;45905;50.570;10.428;2023-04-24T14:51:25;0.80;;;0.40;;
60032;SDS011;45905;50.570;10.428;2023-04-24T14:53:53;0.90;;;0.70;;
60032;SDS011;45905;50.570;10.428;2023-04-24T14:56:20;1.00;;;0.60;;
60032;SDS011;45905;50.570;10.428;2023-04-24T14:58:47;0.90;;;0.70;;
60032;SDS011;45905;50.570;10.428;2023-04-24T15:01:14;1.20;;;0.60;;
60032;SDS011;45905;50.570;10.428;2023-04-24T15:03:43;0.80;;;0.60;;
60032;SDS011;45905;50.570;10.428;2023-04-24T15:06:11;1.10;;;0.53;;
60032;SDS011;45905;50.570;10.428;2023-04-24T15:08:39;0.80;;;0.50;;